Terminal Aerodrome Forecast
Issued by NWS Newport/Morehead City, NC

Home | Current Version | Previous Version | Text Only | Print | Product List | Glossary On
Versions: 1 2 3 4 5 6 7 8 9 10 11 12 13 14 15 16 17 18 19 20 21
000
FTUS42 KMHX 020539
TAFEWN
TAF
KEWN 020539Z 0206/0306 24003KT 1/2SM FG OVC002
     FM021400 27004KT P6SM SCT006 OVC020
      TEMPO 0214/0215 3SM BR OVC005
     FM021800 36009KT P6SM SCT025 BKN050=

USA.gov is the U.S. government's official web portal to all federal, state and local government web resources and services.